createdAt,value
2022-08-17T00:00:34.834Z,64.85
2022-08-17T00:03:13.557Z,64.33
2022-08-17T00:05:45.099Z,63.83
2022-08-17T00:08:15.217Z,64.53
2022-08-17T00:10:44.459Z,65.70
2022-08-17T00:13:17.275Z,68.46
2022-08-17T00:15:45.478Z,68.59
2022-08-17T00:19:06.015Z,66.59
2022-08-17T00:21:03.998Z,67.58
2022-08-17T00:23:39.399Z,66.56
2022-08-17T00:26:43.428Z,66.25
2022-08-17T00:29:06.892Z,66.92
2022-08-17T00:31:35.773Z,69.55
2022-08-17T00:34:04.666Z,68.73
2022-08-17T00:36:32.574Z,66.88
2022-08-17T00:39:00.555Z,66.00
2022-08-17T00:41:29.384Z,66.35
2022-08-17T00:44:01.308Z,66.65
2022-08-17T00:46:33.331Z,66.14
2022-08-17T00:49:01.560Z,65.81
2022-08-17T00:51:35.528Z,65.63
2022-08-17T00:54:09.567Z,65.86
2022-08-17T00:56:42.708Z,65.81
2022-08-17T00:59:12.625Z,67.23
2022-08-17T01:01:42.603Z,66.12
2022-08-17T01:04:12.081Z,65.92
2022-08-17T01:06:42.758Z,66.20
2022-08-17T01:09:10.803Z,67.83
2022-08-17T01:11:40.602Z,70.75
2022-08-17T01:14:09.381Z,72.41
2022-08-17T01:16:38.422Z,72.44
2022-08-17T01:19:16.700Z,74.19
2022-08-17T01:21:51.164Z,72.44
2022-08-17T01:24:20.407Z,69.52
2022-08-17T01:26:48.547Z,70.03
2022-08-17T01:29:17.244Z,69.16
2022-08-17T01:31:48.020Z,68.69
2022-08-17T01:34:17.791Z,69.36
2022-08-17T01:36:49.837Z,71.61
2022-08-17T01:39:23.158Z,70.36
2022-08-17T01:41:54.466Z,68.96
2022-08-17T01:44:27.774Z,70.04
2022-08-17T01:46:55.696Z,70.75
2022-08-17T01:49:23.911Z,70.34
2022-08-17T01:51:51.898Z,74.47
2022-08-17T01:54:22.068Z,74.04
2022-08-17T01:56:51.732Z,73.03
2022-08-17T01:59:21.233Z,72.17
2022-08-17T02:01:49.414Z,72.41
2022-08-17T02:04:17.548Z,74.12
2022-08-17T02:06:53.314Z,72.35
2022-08-17T02:09:25.475Z,71.02
2022-08-17T02:11:54.644Z,70.04
2022-08-17T02:14:26.053Z,70.05
2022-08-17T02:16:56.075Z,71.51
2022-08-17T02:19:24.029Z,71.54
2022-08-17T02:21:54.543Z,72.14
2022-08-17T02:24:59.932Z,72.33
2022-08-17T02:27:15.928Z,70.73
2022-08-17T02:29:43.918Z,71.03
2022-08-17T02:32:20.762Z,72.23
2022-08-17T02:34:56.526Z,71.05
2022-08-17T02:37:24.468Z,71.54
2022-08-17T02:39:53.774Z,70.69
2022-08-17T02:42:28.604Z,71.49
2022-08-17T02:44:56.556Z,72.83
2022-08-17T02:47:24.998Z,72.06
2022-08-17T02:49:55.916Z,70.93
2022-08-17T02:52:53.270Z,72.48
2022-08-17T02:55:20.556Z,72.67
2022-08-17T02:57:49.405Z,73.28
2022-08-17T03:00:21.334Z,74.74
2022-08-17T03:02:50.016Z,75.47
2022-08-17T03:05:21.306Z,73.45
2022-08-17T03:07:52.207Z,72.91
2022-08-17T03:10:22.527Z,73.39
2022-08-17T03:12:50.665Z,72.48
2022-08-17T03:15:20.930Z,71.21
2022-08-17T03:17:49.478Z,71.21
2022-08-17T03:20:17.478Z,69.27
2022-08-17T03:22:53.323Z,69.41
2022-08-17T03:25:26.070Z,68.71
2022-08-17T03:27:54.508Z,69.91
2022-08-17T03:30:23.659Z,68.71
2022-08-17T03:32:54.742Z,68.10
2022-08-17T03:35:24.317Z,68.39
2022-08-17T03:38:00.523Z,68.85
2022-08-17T03:40:55.172Z,67.39
2022-08-17T03:43:22.845Z,67.04
2022-08-17T03:46:10.756Z,67.87
2022-08-17T03:49:13.369Z,70.05
2022-08-17T03:51:58.633Z,68.56
2022-08-17T03:54:58.418Z,67.97
2022-08-17T03:57:31.361Z,67.90
2022-08-17T03:59:59.740Z,67.44
2022-08-17T04:02:31.659Z,67.22
2022-08-17T04:05:00.039Z,67.81
2022-08-17T04:07:30.447Z,68.84
2022-08-17T04:09:59.401Z,69.85
2022-08-17T04:12:30.784Z,69.41
2022-08-17T04:14:59.389Z,68.83
2022-08-17T04:17:29.102Z,71.05
2022-08-17T04:19:59.182Z,70.65
2022-08-17T04:22:30.732Z,76.26
2022-08-17T04:25:02.942Z,76.96
2022-08-17T04:27:32.092Z,75.64
2022-08-17T04:29:59.996Z,74.83
2022-08-17T04:32:59.432Z,72.94
2022-08-17T04:35:19.956Z,71.47
2022-08-17T04:37:47.989Z,72.15
2022-08-17T04:40:33.276Z,70.15
2022-08-17T04:43:04.140Z,70.92
2022-08-17T04:45:32.733Z,69.79
2022-08-17T04:48:02.108Z,68.19
2022-08-17T04:50:29.962Z,68.75
2022-08-17T04:52:58.123Z,69.09
2022-08-17T04:55:26.321Z,70.03
2022-08-17T04:57:56.628Z,72.59
2022-08-17T05:00:26.291Z,71.59
2022-08-17T05:02:56.562Z,72.27
2022-08-17T05:05:27.390Z,70.29
2022-08-17T05:07:58.936Z,71.39
2022-08-17T05:10:30.189Z,69.71
2022-08-17T05:13:00.140Z,70.17
2022-08-17T05:15:32.986Z,72.79
2022-08-17T05:18:01.218Z,71.93
2022-08-17T05:20:29.901Z,70.96
2022-08-17T05:22:59.546Z,70.12
2022-08-17T05:25:29.976Z,68.71
2022-08-17T05:28:04.520Z,68.56
2022-08-17T05:30:36.145Z,68.25
2022-08-17T05:33:08.796Z,68.90
2022-08-17T05:35:39.511Z,68.17
2022-08-17T05:38:08.229Z,68.02
2022-08-17T05:40:37.057Z,66.90
2022-08-17T05:43:07.766Z,67.12
2022-08-17T05:45:54.572Z,66.59
2022-08-17T05:48:35.813Z,67.20
2022-08-17T05:51:28.857Z,66.51
2022-08-17T05:54:08.294Z,65.56
2022-08-17T05:56:56.217Z,65.29
2022-08-17T05:59:34.175Z,65.53
2022-08-17T06:02:12.569Z,65.70
2022-08-17T06:04:56.062Z,68.27
2022-08-17T06:07:32.793Z,68.60
2022-08-17T06:10:07.009Z,67.41
2022-08-17T06:13:00.736Z,66.60
2022-08-17T06:15:32.931Z,65.94
2022-08-17T06:18:06.695Z,65.50
2022-08-17T06:20:44.789Z,65.84
2022-08-17T06:23:19.215Z,64.70
2022-08-17T06:25:50.925Z,64.85
2022-08-17T06:28:31.338Z,64.90
2022-08-17T06:31:06.953Z,64.36
2022-08-17T06:33:39.396Z,64.65
2022-08-17T06:36:22.459Z,64.51
2022-08-17T06:39:00.698Z,63.99
2022-08-17T06:41:38.963Z,64.01
2022-08-17T06:44:49.933Z,64.40
2022-08-17T06:47:09.108Z,63.46
2022-08-17T06:49:50.715Z,62.55
2022-08-17T06:52:45.584Z,61.39
2022-08-17T06:55:21.216Z,60.81
2022-08-17T06:57:53.487Z,58.80
2022-08-17T07:00:24.850Z,59.21
2022-08-17T07:02:58.781Z,57.60
2022-08-17T07:05:33.693Z,58.00
2022-08-17T07:08:09.235Z,56.10
2022-08-17T07:10:42.642Z,55.63
2022-08-17T07:13:32.342Z,54.29
2022-08-17T07:16:19.442Z,53.70
2022-08-17T07:18:50.869Z,54.14
2022-08-17T07:21:29.545Z,54.44
2022-08-17T07:24:07.924Z,54.69
2022-08-17T07:26:35.762Z,52.77
2022-08-17T07:29:03.754Z,51.08
2022-08-17T07:31:33.695Z,51.48
2022-08-17T07:34:07.950Z,52.11
2022-08-17T07:36:37.204Z,52.17
2022-08-17T07:39:05.871Z,52.45
2022-08-17T07:41:57.430Z,51.92
2022-08-17T07:44:29.520Z,50.41
2022-08-17T07:47:15.929Z,49.64
2022-08-17T07:49:46.827Z,48.62
2022-08-17T07:52:50.295Z,48.71
2022-08-17T07:55:29.309Z,49.69
2022-08-17T07:57:59.387Z,49.19
2022-08-17T08:00:31.442Z,49.57
2022-08-17T08:03:05.964Z,50.61
2022-08-17T08:05:50.286Z,49.93
2022-08-17T08:08:28.055Z,50.48
2022-08-17T08:11:03.248Z,50.07
2022-08-17T08:13:33.242Z,50.45
2022-08-17T08:16:25.334Z,51.13
2022-08-17T08:18:57.799Z,50.69
2022-08-17T08:21:47.543Z,49.76
2022-08-17T08:24:36.684Z,48.89
2022-08-17T08:27:12.195Z,49.48
2022-08-17T08:29:48.941Z,49.48
2022-08-17T08:32:28.502Z,49.03
2022-08-17T08:35:04.614Z,48.67
2022-08-17T08:37:50.942Z,48.16
2022-08-17T08:40:34.827Z,48.89
2022-08-17T08:43:15.730Z,50.88
2022-08-17T08:45:51.442Z,50.44
2022-08-17T08:48:55.966Z,49.07
2022-08-17T08:51:40.913Z,50.82
2022-08-17T08:54:35.589Z,51.03
2022-08-17T08:57:26.458Z,51.08
2022-08-17T09:00:10.792Z,50.21
2022-08-17T09:03:02.610Z,49.09
2022-08-17T09:05:42.283Z,50.23
2022-08-17T09:08:19.105Z,49.43
2022-08-17T09:10:57.513Z,49.38
2022-08-17T09:13:36.198Z,49.61
2022-08-17T09:16:09.956Z,49.73
2022-08-17T09:19:01.894Z,49.56
2022-08-17T09:21:38.145Z,50.52
2022-08-17T09:24:25.119Z,50.30
2022-08-17T09:26:59.956Z,48.97
2022-08-17T09:29:35.131Z,50.58
2022-08-17T09:32:10.358Z,48.39
2022-08-17T09:34:47.061Z,49.58
2022-08-17T09:37:23.955Z,51.67
2022-08-17T09:40:08.462Z,53.10
2022-08-17T09:42:49.802Z,52.21
2022-08-17T09:45:28.890Z,52.31
2022-08-17T09:48:02.092Z,51.67
2022-08-17T09:51:04.200Z,50.40
2022-08-17T09:53:25.609Z,50.47
2022-08-17T09:56:18.671Z,50.59
2022-08-17T09:59:04.051Z,52.05
2022-08-17T10:01:39.866Z,52.89
2022-08-17T10:04:29.353Z,53.73
2022-08-17T10:07:04.396Z,55.45
2022-08-17T10:09:44.287Z,57.65
2022-08-17T10:12:21.450Z,60.47
2022-08-17T10:15:07.742Z,65.91
2022-08-17T10:17:47.437Z,65.28
2022-08-17T10:20:21.564Z,63.11
2022-08-17T10:23:12.347Z,64.79
2022-08-17T10:26:09.398Z,66.75
2022-08-17T10:28:41.649Z,65.70
2022-08-17T10:34:27.874Z,65.60
2022-08-17T10:37:13.003Z,68.26
2022-08-17T10:39:53.083Z,66.63
2022-08-17T10:42:32.232Z,66.90
2022-08-17T10:45:06.514Z,67.62
2022-08-17T10:48:04.665Z,66.93
2022-08-17T10:50:58.618Z,67.51
2022-08-17T10:53:55.049Z,67.67
2022-08-17T10:56:49.547Z,66.73
2022-08-17T10:59:50.695Z,70.35
2022-08-17T11:02:41.298Z,69.68
2022-08-17T11:05:27.535Z,68.63
2022-08-17T11:08:22.065Z,65.94
2022-08-17T11:11:20.483Z,63.29
2022-08-17T11:14:06.206Z,66.14
2022-08-17T11:16:50.648Z,69.22
2022-08-17T11:19:56.095Z,67.56
2022-08-17T11:22:59.050Z,68.02
2022-08-17T11:25:39.251Z,68.24
2022-08-17T11:28:15.038Z,70.18
2022-08-17T11:30:48.582Z,69.91
2022-08-17T11:33:54.203Z,70.59
2022-08-17T11:36:49.866Z,69.86
2022-08-17T11:39:45.131Z,71.01
2022-08-17T11:42:28.636Z,72.41
2022-08-17T11:44:58.961Z,75.84
2022-08-17T11:48:23.653Z,74.21
2022-08-17T11:51:11.240Z,73.32
2022-08-17T11:54:30.974Z,71.43
2022-08-17T11:56:52.862Z,71.10
2022-08-17T12:00:02.882Z,71.53
2022-08-17T12:02:47.422Z,71.30
2022-08-17T12:05:34.709Z,71.86
2022-08-17T12:08:17.667Z,70.83
2022-08-17T12:11:18.900Z,73.15
2022-08-17T12:15:12.672Z,70.57
2022-08-17T12:17:46.682Z,71.67
2022-08-17T12:20:24.075Z,71.49
2022-08-17T12:23:01.223Z,71.45
2022-08-17T12:25:36.669Z,71.46
2022-08-17T12:28:07.667Z,71.00
2022-08-17T12:30:37.747Z,70.67
2022-08-17T12:33:25.665Z,68.88
2022-08-17T12:35:59.621Z,67.92
2022-08-17T12:38:33.074Z,69.72
2022-08-17T12:41:22.345Z,69.46
2022-08-17T12:43:58.637Z,68.92
2022-08-17T12:46:26.523Z,67.31
2022-08-17T12:49:12.503Z,67.94
2022-08-17T12:51:44.360Z,66.50
2022-08-17T12:54:24.224Z,68.29
2022-08-17T12:56:52.401Z,67.11
2022-08-17T12:59:30.412Z,69.86
2022-08-17T13:01:59.071Z,68.17
2022-08-17T13:04:29.722Z,71.80
2022-08-17T13:06:59.930Z,71.47
2022-08-17T13:09:40.159Z,71.32
2022-08-17T13:12:09.137Z,72.63
2022-08-17T13:14:37.155Z,69.52
2022-08-17T13:17:09.888Z,69.13
2022-08-17T13:19:49.254Z,68.07
2022-08-17T13:22:18.567Z,64.56
2022-08-17T13:24:54.393Z,64.49
2022-08-17T13:27:25.089Z,62.66
2022-08-17T13:29:57.315Z,61.95
2022-08-17T13:32:39.963Z,57.95
2022-08-17T13:35:39.165Z,58.38
2022-08-17T13:38:14.033Z,57.39
2022-08-17T13:40:59.677Z,53.92
2022-08-17T13:43:45.581Z,54.09
2022-08-17T13:46:21.185Z,53.09
2022-08-17T13:48:59.986Z,52.91
2022-08-17T13:51:33.572Z,51.46
2022-08-17T13:54:09.447Z,49.26
2022-08-17T13:56:57.577Z,49.99
2022-08-17T13:59:54.240Z,48.19
2022-08-17T14:02:20.323Z,48.21
2022-08-17T14:04:49.110Z,48.15
2022-08-17T14:07:32.077Z,46.47
2022-08-17T14:10:03.060Z,45.15
2022-08-17T14:12:34.284Z,44.91
2022-08-17T14:15:03.313Z,41.95
2022-08-17T14:17:36.335Z,43.22
2022-08-17T14:20:09.175Z,43.76
2022-08-17T14:22:42.177Z,41.47
2022-08-17T14:25:21.525Z,43.68
2022-08-17T14:27:53.127Z,41.47
2022-08-17T14:30:23.591Z,41.30
2022-08-17T14:32:52.733Z,42.29
2022-08-17T14:35:23.811Z,42.64
2022-08-17T14:37:54.020Z,41.24
2022-08-17T14:40:24.769Z,42.58
2022-08-17T14:42:55.143Z,41.81
2022-08-17T14:45:30.057Z,43.50
2022-08-17T14:48:03.978Z,41.58
2022-08-17T14:50:35.266Z,41.61
2022-08-17T14:53:06.934Z,41.04
2022-08-17T14:55:40.412Z,40.80
2022-08-17T14:58:08.983Z,40.62
2022-08-17T15:00:37.219Z,41.01
2022-08-17T15:03:06.000Z,42.13
2022-08-17T15:05:37.555Z,43.48
2022-08-17T15:08:08.169Z,41.09
2022-08-17T15:10:37.272Z,41.86
2022-08-17T15:13:05.237Z,40.98
2022-08-17T15:15:33.125Z,41.38
2022-08-17T15:18:02.402Z,41.27
2022-08-17T15:20:31.232Z,42.27
2022-08-17T15:22:59.692Z,41.55
2022-08-17T15:25:31.655Z,41.74
2022-08-17T15:28:00.947Z,41.57
2022-08-17T15:30:29.859Z,40.95
2022-08-17T15:33:01.750Z,41.82
2022-08-17T15:35:33.043Z,42.35
2022-08-17T15:38:10.755Z,44.55
2022-08-17T15:40:44.080Z,45.06
2022-08-17T15:43:14.288Z,40.16
2022-08-17T15:45:43.038Z,41.83
2022-08-17T15:48:14.208Z,42.16
2022-08-17T15:50:45.060Z,41.90
2022-08-17T15:53:13.018Z,42.04
2022-08-17T15:55:43.898Z,43.47
2022-08-17T15:58:11.817Z,45.96
2022-08-17T16:00:51.592Z,41.40
2022-08-17T16:03:58.445Z,44.41
2022-08-17T16:06:09.516Z,44.01
2022-08-17T16:08:41.601Z,42.73
2022-08-17T16:11:11.998Z,41.75
2022-08-17T16:13:40.717Z,43.81
2022-08-17T16:16:09.388Z,44.18
2022-08-17T16:18:38.793Z,43.63
2022-08-17T16:21:31.315Z,43.68
2022-08-17T16:24:13.096Z,43.79
2022-08-17T16:26:43.480Z,43.95
2022-08-17T16:29:11.683Z,43.22
2022-08-17T16:31:40.062Z,43.91
2022-08-17T16:34:15.975Z,44.54
2022-08-17T16:36:51.822Z,45.90
2022-08-17T16:39:23.813Z,47.55
2022-08-17T16:41:53.001Z,47.46
2022-08-17T16:44:21.938Z,47.83
2022-08-17T16:46:50.445Z,47.91
2022-08-17T16:49:36.088Z,49.00
2022-08-17T16:52:09.823Z,49.63
2022-08-17T16:54:39.516Z,49.98
2022-08-17T16:57:08.785Z,50.31
2022-08-17T16:59:40.857Z,49.77
2022-08-17T17:02:14.230Z,49.99
2022-08-17T17:04:49.169Z,50.15
2022-08-17T17:07:34.818Z,50.66
2022-08-17T17:10:06.671Z,51.59
2022-08-17T17:13:02.397Z,51.79
2022-08-17T17:15:51.665Z,51.49
2022-08-17T17:18:24.257Z,50.56
2022-08-17T17:20:57.284Z,50.41
2022-08-17T17:23:38.322Z,50.44
2022-08-17T17:26:20.671Z,50.84
2022-08-17T17:29:02.234Z,51.88
2022-08-17T17:31:38.279Z,50.43
2022-08-17T17:34:11.104Z,50.77
2022-08-17T17:36:41.967Z,50.47
2022-08-17T17:39:14.340Z,50.17
2022-08-17T17:41:47.642Z,50.53
2022-08-17T17:44:21.325Z,51.93
2022-08-17T17:46:54.252Z,51.94
2022-08-17T17:49:22.250Z,52.85
2022-08-17T17:52:10.136Z,53.28
2022-08-17T17:54:56.699Z,53.52
2022-08-17T17:57:55.818Z,53.15
2022-08-17T18:00:27.184Z,53.73
2022-08-17T18:03:08.569Z,54.09
2022-08-17T18:06:01.153Z,54.15
2022-08-17T18:08:48.983Z,54.34
2022-08-17T18:11:35.027Z,55.30
2022-08-17T18:14:18.401Z,55.59
2022-08-17T18:16:48.055Z,56.72
2022-08-17T18:19:20.041Z,56.37
2022-08-17T18:21:53.938Z,56.39
2022-08-17T18:24:31.369Z,56.79
2022-08-17T18:27:02.212Z,56.95
2022-08-17T18:29:43.608Z,57.50
2022-08-17T18:32:32.350Z,59.64
2022-08-17T18:35:27.695Z,58.71
2022-08-17T18:37:57.657Z,58.52
2022-08-17T18:40:38.242Z,58.24
2022-08-17T18:43:13.277Z,59.32
2022-08-17T18:45:45.898Z,59.72
2022-08-17T18:48:33.353Z,60.09
2022-08-17T18:51:06.142Z,60.43
2022-08-17T18:53:38.459Z,60.25
2022-08-17T18:56:33.746Z,60.76
2022-08-17T18:59:11.333Z,60.34
2022-08-17T19:02:00.809Z,59.92
2022-08-17T19:04:35.178Z,60.16
2022-08-17T19:07:12.903Z,61.06
2022-08-17T19:09:46.414Z,60.86
2022-08-17T19:12:27.386Z,60.54
2022-08-17T19:14:57.871Z,61.03
2022-08-17T19:17:35.357Z,60.21
2022-08-17T19:20:11.405Z,59.34
2022-08-17T19:23:03.235Z,59.57
2022-08-17T19:25:34.793Z,59.47
2022-08-17T19:28:21.599Z,60.18
2022-08-17T19:30:55.838Z,60.59
2022-08-17T19:33:23.955Z,60.53
2022-08-17T19:36:02.906Z,61.05
2022-08-17T19:38:42.794Z,61.36
2022-08-17T19:41:20.292Z,61.43
2022-08-17T19:44:10.103Z,61.05
2022-08-17T19:46:48.705Z,62.85
2022-08-17T19:49:33.240Z,62.27
2022-08-17T19:52:34.207Z,63.03
2022-08-17T19:55:08.346Z,63.42
2022-08-17T19:57:47.264Z,64.09
2022-08-17T20:00:16.894Z,64.32
2022-08-17T20:02:57.492Z,63.99
2022-08-17T20:05:29.528Z,63.70
2022-08-17T20:08:04.219Z,64.89
2022-08-17T20:10:40.377Z,65.31
2022-08-17T20:13:12.796Z,65.14
2022-08-17T20:15:42.985Z,65.58
2022-08-17T20:18:18.408Z,64.62
2022-08-17T20:20:54.757Z,64.20
2022-08-17T20:23:41.044Z,62.89
2022-08-17T20:26:22.964Z,63.64
2022-08-17T20:29:09.969Z,64.27
2022-08-17T20:31:44.451Z,64.90
2022-08-17T20:34:36.993Z,64.80
2022-08-17T20:37:09.216Z,64.27
2022-08-17T20:39:41.702Z,64.36
2022-08-17T20:42:28.393Z,64.95
2022-08-17T20:44:58.776Z,65.16
2022-08-17T20:47:29.889Z,65.08
2022-08-17T20:50:03.043Z,64.72
2022-08-17T20:52:48.074Z,64.81
2022-08-17T20:55:53.500Z,64.84
2022-08-17T20:58:48.672Z,65.33
2022-08-17T21:01:24.289Z,66.02
2022-08-17T21:03:54.363Z,66.14
2022-08-17T21:06:24.969Z,65.33
2022-08-17T21:08:58.567Z,66.04
2022-08-17T21:12:04.119Z,66.84
2022-08-17T21:14:59.633Z,66.53
2022-08-17T21:17:43.961Z,66.98
2022-08-17T21:20:32.312Z,67.36
2022-08-17T21:23:27.201Z,67.05
2022-08-17T21:26:13.701Z,66.52
2022-08-17T21:29:00.396Z,66.98
2022-08-17T21:31:35.555Z,67.57
2022-08-17T21:34:27.635Z,67.38
2022-08-17T21:36:57.713Z,66.34
2022-08-17T21:39:41.681Z,67.31
2022-08-17T21:42:12.951Z,67.21
2022-08-17T21:44:47.501Z,66.76
2022-08-17T21:47:21.024Z,67.43
2022-08-17T21:49:49.280Z,67.28
2022-08-17T21:52:21.085Z,67.50
2022-08-17T21:54:52.442Z,66.72
2022-08-17T21:57:23.273Z,66.79
2022-08-17T21:59:59.595Z,67.08
2022-08-17T22:02:33.232Z,67.46
2022-08-17T22:05:10.198Z,67.51
2022-08-17T22:07:43.992Z,67.28
2022-08-17T22:10:31.086Z,67.19
2022-08-17T22:13:17.172Z,67.36
2022-08-17T22:15:51.417Z,67.88
2022-08-17T22:18:26.180Z,67.59
2022-08-17T22:20:57.871Z,68.35
2022-08-17T22:23:46.796Z,69.07
2022-08-17T22:26:17.776Z,69.45
2022-08-17T22:28:48.872Z,67.17
2022-08-17T22:31:20.349Z,66.63
2022-08-17T22:33:49.959Z,67.26
2022-08-17T22:36:25.015Z,68.54
2022-08-17T22:38:55.318Z,68.53
2022-08-17T22:41:34.354Z,68.88
2022-08-17T22:44:14.009Z,69.27
2022-08-17T22:46:57.074Z,69.64
2022-08-17T22:49:31.066Z,69.91
2022-08-17T22:52:32.677Z,69.99
2022-08-17T22:55:22.043Z,68.24
2022-08-17T22:58:08.217Z,67.55
2022-08-17T23:00:40.058Z,67.85
2022-08-17T23:03:15.336Z,67.94
2022-08-17T23:05:45.608Z,67.95
2022-08-17T23:08:14.842Z,67.82
2022-08-17T23:10:46.466Z,68.04
2022-08-17T23:13:14.412Z,68.55
2022-08-17T23:15:44.529Z,68.98
2022-08-17T23:18:13.710Z,69.14
2022-08-17T23:20:42.444Z,69.41
2022-08-17T23:23:12.536Z,70.71
2022-08-17T23:25:44.392Z,71.10
2022-08-17T23:28:12.389Z,71.53
2022-08-17T23:30:46.599Z,73.51
2022-08-17T23:33:30.891Z,73.83
2022-08-17T23:35:59.556Z,73.10
2022-08-17T23:38:28.684Z,75.34
2022-08-17T23:40:59.904Z,75.58
2022-08-17T23:43:29.646Z,77.04
2022-08-17T23:45:59.678Z,75.16
2022-08-17T23:48:35.831Z,75.13
2022-08-17T23:51:09.137Z,76.26
2022-08-17T23:53:40.349Z,76.33
2022-08-17T23:56:11.091Z,75.89
2022-08-17T23:58:42.258Z,76.59
